sensor_id;sensor_type;location;lat;lon;timestamp;P1;durP1;ratioP1;P2;durP2;ratioP2
59530;SDS011;45349;48.692;8.186;2023-07-24T00:01:33;12.37;;;7.60;;
59530;SDS011;45349;48.692;8.186;2023-07-24T00:04:00;14.37;;;7.97;;
59530;SDS011;45349;48.692;8.186;2023-07-24T00:06:26;12.37;;;7.87;;
59530;SDS011;45349;48.692;8.186;2023-07-24T00:08:54;12.67;;;8.37;;
59530;SDS011;45349;48.692;8.186;2023-07-24T00:11:21;12.27;;;8.30;;
59530;SDS011;45349;48.692;8.186;2023-07-24T00:13:47;13.50;;;7.93;;
59530;SDS011;45349;48.692;8.186;2023-07-24T00:16:14;13.90;;;8.20;;
59530;SDS011;45349;48.692;8.186;2023-07-24T00:18:40;13.00;;;7.63;;
59530;SDS011;45349;48.692;8.186;2023-07-24T00:21:07;13.30;;;7.70;;
59530;SDS011;45349;48.692;8.186;2023-07-24T00:23:33;13.83;;;8.40;;
59530;SDS011;45349;48.692;8.186;2023-07-24T00:26:02;10.67;;;7.07;;
59530;SDS011;45349;48.692;8.186;2023-07-24T00:28:28;12.37;;;7.70;;
59530;SDS011;45349;48.692;8.186;2023-07-24T00:30:55;11.07;;;7.60;;
59530;SDS011;45349;48.692;8.186;2023-07-24T00:33:22;12.77;;;8.33;;
59530;SDS011;45349;48.692;8.186;2023-07-24T00:35:48;12.73;;;7.80;;
59530;SDS011;45349;48.692;8.186;2023-07-24T00:38:15;11.43;;;6.93;;
59530;SDS011;45349;48.692;8.186;2023-07-24T00:40:41;11.47;;;7.40;;
59530;SDS011;45349;48.692;8.186;2023-07-24T00:43:09;12.63;;;8.20;;
59530;SDS011;45349;48.692;8.186;2023-07-24T00:45:36;13.63;;;7.57;;
59530;SDS011;45349;48.692;8.186;2023-07-24T00:48:02;9.53;;;6.73;;
59530;SDS011;45349;48.692;8.186;2023-07-24T00:50:29;15.77;;;8.43;;
59530;SDS011;45349;48.692;8.186;2023-07-24T00:52:56;13.87;;;7.43;;
59530;SDS011;45349;48.692;8.186;2023-07-24T00:55:23;13.83;;;7.80;;
59530;SDS011;45349;48.692;8.186;2023-07-24T00:57:50;12.37;;;7.13;;
59530;SDS011;45349;48.692;8.186;2023-07-24T01:00:19;12.67;;;7.30;;
59530;SDS011;45349;48.692;8.186;2023-07-24T01:02:46;13.57;;;7.87;;
59530;SDS011;45349;48.692;8.186;2023-07-24T01:05:13;13.03;;;8.03;;
59530;SDS011;45349;48.692;8.186;2023-07-24T01:07:41;11.47;;;7.17;;
59530;SDS011;45349;48.692;8.186;2023-07-24T01:10:09;13.10;;;7.87;;
59530;SDS011;45349;48.692;8.186;2023-07-24T01:12:36;11.27;;;7.57;;
59530;SDS011;45349;48.692;8.186;2023-07-24T01:15:10;15.53;;;7.83;;
59530;SDS011;45349;48.692;8.186;2023-07-24T01:17:44;13.67;;;8.20;;
59530;SDS011;45349;48.692;8.186;2023-07-24T01:20:15;11.83;;;8.07;;
59530;SDS011;45349;48.692;8.186;2023-07-24T01:22:48;11.30;;;7.10;;
59530;SDS011;45349;48.692;8.186;2023-07-24T01:25:31;14.10;;;8.87;;
59530;SDS011;45349;48.692;8.186;2023-07-24T01:28:05;13.37;;;7.73;;
59530;SDS011;45349;48.692;8.186;2023-07-24T01:30:33;12.53;;;8.03;;
59530;SDS011;45349;48.692;8.186;2023-07-24T01:32:59;12.83;;;7.40;;
59530;SDS011;45349;48.692;8.186;2023-07-24T01:35:26;11.47;;;7.70;;
59530;SDS011;45349;48.692;8.186;2023-07-24T01:37:55;12.73;;;7.33;;
59530;SDS011;45349;48.692;8.186;2023-07-24T01:40:23;12.63;;;7.73;;
59530;SDS011;45349;48.692;8.186;2023-07-24T01:42:50;13.40;;;7.43;;
59530;SDS011;45349;48.692;8.186;2023-07-24T01:45:18;11.73;;;7.47;;
59530;SDS011;45349;48.692;8.186;2023-07-24T01:47:45;14.53;;;8.10;;
59530;SDS011;45349;48.692;8.186;2023-07-24T01:50:12;14.10;;;7.87;;
59530;SDS011;45349;48.692;8.186;2023-07-24T01:52:39;11.60;;;7.50;;
59530;SDS011;45349;48.692;8.186;2023-07-24T01:55:05;10.73;;;7.57;;
59530;SDS011;45349;48.692;8.186;2023-07-24T01:57:34;13.80;;;7.50;;
59530;SDS011;45349;48.692;8.186;2023-07-24T02:00:00;12.67;;;7.60;;
59530;SDS011;45349;48.692;8.186;2023-07-24T02:02:28;12.73;;;7.30;;
59530;SDS011;45349;48.692;8.186;2023-07-24T02:04:55;14.87;;;7.33;;
59530;SDS011;45349;48.692;8.186;2023-07-24T02:07:21;14.60;;;8.33;;
59530;SDS011;45349;48.692;8.186;2023-07-24T02:09:49;13.03;;;7.60;;
59530;SDS011;45349;48.692;8.186;2023-07-24T02:12:16;10.27;;;7.00;;
59530;SDS011;45349;48.692;8.186;2023-07-24T02:14:42;12.47;;;7.30;;
59530;SDS011;45349;48.692;8.186;2023-07-24T02:17:10;9.87;;;7.10;;
59530;SDS011;45349;48.692;8.186;2023-07-24T02:19:37;12.73;;;7.30;;
59530;SDS011;45349;48.692;8.186;2023-07-24T02:22:05;13.77;;;7.17;;
59530;SDS011;45349;48.692;8.186;2023-07-24T02:24:34;13.03;;;7.10;;
59530;SDS011;45349;48.692;8.186;2023-07-24T02:27:00;13.33;;;7.17;;
59530;SDS011;45349;48.692;8.186;2023-07-24T02:29:30;11.63;;;7.37;;
59530;SDS011;45349;48.692;8.186;2023-07-24T02:31:57;10.73;;;6.90;;
59530;SDS011;45349;48.692;8.186;2023-07-24T02:34:24;10.10;;;6.90;;
59530;SDS011;45349;48.692;8.186;2023-07-24T02:36:54;12.53;;;6.87;;
59530;SDS011;45349;48.692;8.186;2023-07-24T02:39:21;14.50;;;7.20;;
59530;SDS011;45349;48.692;8.186;2023-07-24T02:41:53;10.43;;;6.67;;
59530;SDS011;45349;48.692;8.186;2023-07-24T02:44:19;11.87;;;7.10;;
59530;SDS011;45349;48.692;8.186;2023-07-24T02:46:53;11.90;;;7.47;;
59530;SDS011;45349;48.692;8.186;2023-07-24T02:49:27;12.23;;;7.40;;
59530;SDS011;45349;48.692;8.186;2023-07-24T02:52:01;12.37;;;7.57;;
59530;SDS011;45349;48.692;8.186;2023-07-24T02:54:31;10.60;;;6.80;;
59530;SDS011;45349;48.692;8.186;2023-07-24T02:57:00;13.97;;;6.90;;
59530;SDS011;45349;48.692;8.186;2023-07-24T02:59:29;12.43;;;7.37;;
59530;SDS011;45349;48.692;8.186;2023-07-24T03:04:38;13.90;;;7.70;;
59530;SDS011;45349;48.692;8.186;2023-07-24T03:07:06;17.73;;;8.00;;
59530;SDS011;45349;48.692;8.186;2023-07-24T03:09:34;11.63;;;7.00;;
59530;SDS011;45349;48.692;8.186;2023-07-24T03:12:04;11.40;;;7.17;;
59530;SDS011;45349;48.692;8.186;2023-07-24T03:14:34;13.93;;;7.67;;
59530;SDS011;45349;48.692;8.186;2023-07-24T03:17:07;12.30;;;6.90;;
59530;SDS011;45349;48.692;8.186;2023-07-24T03:19:36;11.37;;;7.47;;
59530;SDS011;45349;48.692;8.186;2023-07-24T03:22:06;14.03;;;7.20;;
59530;SDS011;45349;48.692;8.186;2023-07-24T03:24:37;10.57;;;6.70;;
59530;SDS011;45349;48.692;8.186;2023-07-24T03:27:04;11.37;;;6.90;;
59530;SDS011;45349;48.692;8.186;2023-07-24T03:29:31;12.20;;;7.30;;
59530;SDS011;45349;48.692;8.186;2023-07-24T03:31:57;12.27;;;7.40;;
59530;SDS011;45349;48.692;8.186;2023-07-24T03:34:24;11.07;;;7.03;;
59530;SDS011;45349;48.692;8.186;2023-07-24T03:36:52;17.03;;;6.80;;
59530;SDS011;45349;48.692;8.186;2023-07-24T03:39:20;12.90;;;7.23;;
59530;SDS011;45349;48.692;8.186;2023-07-24T03:41:52;12.73;;;6.87;;
59530;SDS011;45349;48.692;8.186;2023-07-24T03:44:19;12.47;;;6.93;;
59530;SDS011;45349;48.692;8.186;2023-07-24T03:46:50;11.27;;;6.47;;
59530;SDS011;45349;48.692;8.186;2023-07-24T03:49:16;14.20;;;7.00;;
59530;SDS011;45349;48.692;8.186;2023-07-24T03:51:43;11.23;;;7.33;;
59530;SDS011;45349;48.692;8.186;2023-07-24T03:54:09;9.93;;;6.90;;
59530;SDS011;45349;48.692;8.186;2023-07-24T03:56:37;16.03;;;7.07;;
59530;SDS011;45349;48.692;8.186;2023-07-24T03:59:05;12.27;;;6.50;;
59530;SDS011;45349;48.692;8.186;2023-07-24T04:01:32;12.00;;;7.10;;
59530;SDS011;45349;48.692;8.186;2023-07-24T04:03:58;10.77;;;6.60;;
59530;SDS011;45349;48.692;8.186;2023-07-24T04:06:25;13.23;;;7.63;;
59530;SDS011;45349;48.692;8.186;2023-07-24T04:08:51;10.60;;;7.20;;
59530;SDS011;45349;48.692;8.186;2023-07-24T04:11:18;10.40;;;6.70;;
59530;SDS011;45349;48.692;8.186;2023-07-24T04:13:46;11.53;;;6.33;;
59530;SDS011;45349;48.692;8.186;2023-07-24T04:16:12;12.17;;;6.53;;
59530;SDS011;45349;48.692;8.186;2023-07-24T04:18:39;10.93;;;7.30;;
59530;SDS011;45349;48.692;8.186;2023-07-24T04:21:05;11.67;;;7.03;;
59530;SDS011;45349;48.692;8.186;2023-07-24T04:23:32;11.17;;;6.87;;
59530;SDS011;45349;48.692;8.186;2023-07-24T04:25:58;13.83;;;7.50;;
59530;SDS011;45349;48.692;8.186;2023-07-24T04:28:25;11.40;;;7.23;;
59530;SDS011;45349;48.692;8.186;2023-07-24T04:30:53;11.73;;;7.00;;
59530;SDS011;45349;48.692;8.186;2023-07-24T04:33:19;11.10;;;6.23;;
59530;SDS011;45349;48.692;8.186;2023-07-24T04:35:47;10.63;;;6.30;;
59530;SDS011;45349;48.692;8.186;2023-07-24T04:38:14;9.73;;;6.57;;
59530;SDS011;45349;48.692;8.186;2023-07-24T04:40:43;9.10;;;6.07;;
59530;SDS011;45349;48.692;8.186;2023-07-24T04:43:09;14.97;;;7.03;;
59530;SDS011;45349;48.692;8.186;2023-07-24T04:45:36;9.20;;;6.37;;
59530;SDS011;45349;48.692;8.186;2023-07-24T04:48:04;8.20;;;6.13;;
59530;SDS011;45349;48.692;8.186;2023-07-24T04:50:31;10.13;;;6.70;;
59530;SDS011;45349;48.692;8.186;2023-07-24T04:52:58;10.13;;;6.63;;
59530;SDS011;45349;48.692;8.186;2023-07-24T04:55:25;9.13;;;6.60;;
59530;SDS011;45349;48.692;8.186;2023-07-24T04:57:51;10.10;;;6.50;;
59530;SDS011;45349;48.692;8.186;2023-07-24T05:00:18;9.27;;;6.60;;
59530;SDS011;45349;48.692;8.186;2023-07-24T05:02:45;9.90;;;6.53;;
59530;SDS011;45349;48.692;8.186;2023-07-24T05:05:13;11.27;;;6.43;;
59530;SDS011;45349;48.692;8.186;2023-07-24T05:07:39;10.40;;;6.13;;
59530;SDS011;45349;48.692;8.186;2023-07-24T05:10:06;10.37;;;7.00;;
59530;SDS011;45349;48.692;8.186;2023-07-24T05:12:33;10.07;;;6.10;;
59530;SDS011;45349;48.692;8.186;2023-07-24T05:15:00;8.53;;;6.60;;
59530;SDS011;45349;48.692;8.186;2023-07-24T05:17:27;9.67;;;6.33;;
59530;SDS011;45349;48.692;8.186;2023-07-24T05:19:54;10.57;;;6.20;;
59530;SDS011;45349;48.692;8.186;2023-07-24T05:22:22;11.33;;;6.77;;
59530;SDS011;45349;48.692;8.186;2023-07-24T05:24:48;10.23;;;6.47;;
59530;SDS011;45349;48.692;8.186;2023-07-24T05:27:15;10.13;;;6.73;;
59530;SDS011;45349;48.692;8.186;2023-07-24T05:29:41;12.60;;;6.83;;
59530;SDS011;45349;48.692;8.186;2023-07-24T05:32:08;8.83;;;6.07;;
59530;SDS011;45349;48.692;8.186;2023-07-24T05:34:35;11.40;;;7.47;;
59530;SDS011;45349;48.692;8.186;2023-07-24T05:37:01;9.10;;;6.30;;
59530;SDS011;45349;48.692;8.186;2023-07-24T05:39:30;18.47;;;7.17;;
59530;SDS011;45349;48.692;8.186;2023-07-24T05:41:57;12.13;;;7.47;;
59530;SDS011;45349;48.692;8.186;2023-07-24T05:44:23;13.77;;;7.30;;
59530;SDS011;45349;48.692;8.186;2023-07-24T05:46:52;10.90;;;7.37;;
59530;SDS011;45349;48.692;8.186;2023-07-24T05:49:19;13.10;;;7.50;;
59530;SDS011;45349;48.692;8.186;2023-07-24T05:51:50;13.23;;;8.10;;
59530;SDS011;45349;48.692;8.186;2023-07-24T05:54:17;11.47;;;7.50;;
59530;SDS011;45349;48.692;8.186;2023-07-24T05:56:45;15.30;;;7.23;;
59530;SDS011;45349;48.692;8.186;2023-07-24T05:59:11;13.40;;;8.23;;
59530;SDS011;45349;48.692;8.186;2023-07-24T06:01:38;11.97;;;7.60;;
59530;SDS011;45349;48.692;8.186;2023-07-24T06:04:05;15.20;;;8.27;;
59530;SDS011;45349;48.692;8.186;2023-07-24T06:06:32;14.50;;;7.50;;
59530;SDS011;45349;48.692;8.186;2023-07-24T06:08:59;13.43;;;7.90;;
59530;SDS011;45349;48.692;8.186;2023-07-24T06:11:25;12.90;;;7.30;;
59530;SDS011;45349;48.692;8.186;2023-07-24T06:13:53;13.50;;;7.80;;
59530;SDS011;45349;48.692;8.186;2023-07-24T06:16:20;12.20;;;7.57;;
59530;SDS011;45349;48.692;8.186;2023-07-24T06:18:47;12.97;;;7.63;;
59530;SDS011;45349;48.692;8.186;2023-07-24T06:21:13;11.90;;;7.10;;
59530;SDS011;45349;48.692;8.186;2023-07-24T06:23:40;14.67;;;7.87;;
59530;SDS011;45349;48.692;8.186;2023-07-24T06:26:06;11.20;;;7.33;;
59530;SDS011;45349;48.692;8.186;2023-07-24T06:28:33;11.27;;;7.63;;
59530;SDS011;45349;48.692;8.186;2023-07-24T06:31:01;15.60;;;8.13;;
59530;SDS011;45349;48.692;8.186;2023-07-24T06:33:27;11.23;;;7.00;;
59530;SDS011;45349;48.692;8.186;2023-07-24T06:35:54;11.27;;;7.33;;
59530;SDS011;45349;48.692;8.186;2023-07-24T06:38:20;17.20;;;8.70;;
59530;SDS011;45349;48.692;8.186;2023-07-24T06:40:47;13.80;;;7.27;;
59530;SDS011;45349;48.692;8.186;2023-07-24T06:43:14;16.23;;;7.87;;
59530;SDS011;45349;48.692;8.186;2023-07-24T06:45:41;14.30;;;7.43;;
59530;SDS011;45349;48.692;8.186;2023-07-24T06:48:08;13.87;;;7.30;;
59530;SDS011;45349;48.692;8.186;2023-07-24T06:50:35;10.40;;;6.63;;
59530;SDS011;45349;48.692;8.186;2023-07-24T06:53:02;8.97;;;6.20;;
59530;SDS011;45349;48.692;8.186;2023-07-24T06:55:28;12.80;;;6.27;;
59530;SDS011;45349;48.692;8.186;2023-07-24T06:57:55;12.37;;;6.43;;
59530;SDS011;45349;48.692;8.186;2023-07-24T07:00:21;10.80;;;6.57;;
59530;SDS011;45349;48.692;8.186;2023-07-24T07:02:48;10.87;;;6.40;;
59530;SDS011;45349;48.692;8.186;2023-07-24T07:05:16;12.23;;;6.77;;
59530;SDS011;45349;48.692;8.186;2023-07-24T07:07:42;12.90;;;6.67;;
59530;SDS011;45349;48.692;8.186;2023-07-24T07:10:09;15.13;;;7.30;;
59530;SDS011;45349;48.692;8.186;2023-07-24T07:12:36;11.73;;;6.70;;
59530;SDS011;45349;48.692;8.186;2023-07-24T07:15:03;11.70;;;7.17;;
59530;SDS011;45349;48.692;8.186;2023-07-24T07:17:30;11.47;;;7.20;;
59530;SDS011;45349;48.692;8.186;2023-07-24T07:19:56;10.47;;;6.80;;
59530;SDS011;45349;48.692;8.186;2023-07-24T07:22:24;13.27;;;6.67;;
59530;SDS011;45349;48.692;8.186;2023-07-24T07:24:51;14.23;;;7.13;;
59530;SDS011;45349;48.692;8.186;2023-07-24T07:27:17;12.87;;;7.83;;
59530;SDS011;45349;48.692;8.186;2023-07-24T07:29:44;12.30;;;6.77;;
59530;SDS011;45349;48.692;8.186;2023-07-24T07:32:11;11.57;;;6.73;;
59530;SDS011;45349;48.692;8.186;2023-07-24T07:34:37;8.90;;;6.90;;
59530;SDS011;45349;48.692;8.186;2023-07-24T07:37:04;14.17;;;6.47;;
59530;SDS011;45349;48.692;8.186;2023-07-24T07:39:33;13.97;;;7.47;;
59530;SDS011;45349;48.692;8.186;2023-07-24T07:41:59;11.13;;;7.10;;
59530;SDS011;45349;48.692;8.186;2023-07-24T07:44:26;14.40;;;7.37;;
59530;SDS011;45349;48.692;8.186;2023-07-24T07:46:52;11.10;;;6.90;;
59530;SDS011;45349;48.692;8.186;2023-07-24T07:49:19;11.20;;;6.87;;
59530;SDS011;45349;48.692;8.186;2023-07-24T07:52:11;11.57;;;7.20;;
59530;SDS011;45349;48.692;8.186;2023-07-24T07:54:46;10.77;;;6.60;;
59530;SDS011;45349;48.692;8.186;2023-07-24T07:57:13;13.33;;;7.27;;
59530;SDS011;45349;48.692;8.186;2023-07-24T07:59:39;11.50;;;6.53;;
59530;SDS011;45349;48.692;8.186;2023-07-24T08:02:06;10.43;;;6.43;;
59530;SDS011;45349;48.692;8.186;2023-07-24T08:04:33;12.73;;;6.33;;
59530;SDS011;45349;48.692;8.186;2023-07-24T08:07:00;9.40;;;6.33;;
59530;SDS011;45349;48.692;8.186;2023-07-24T08:09:26;11.47;;;6.47;;
59530;SDS011;45349;48.692;8.186;2023-07-24T08:11:57;10.43;;;6.47;;
59530;SDS011;45349;48.692;8.186;2023-07-24T08:14:23;11.30;;;6.57;;
59530;SDS011;45349;48.692;8.186;2023-07-24T08:16:53;11.87;;;6.60;;
59530;SDS011;45349;48.692;8.186;2023-07-24T08:19:19;9.87;;;6.53;;
59530;SDS011;45349;48.692;8.186;2023-07-24T08:22:11;9.83;;;6.40;;
59530;SDS011;45349;48.692;8.186;2023-07-24T08:24:37;9.67;;;6.77;;
59530;SDS011;45349;48.692;8.186;2023-07-24T08:27:06;9.97;;;6.03;;
59530;SDS011;45349;48.692;8.186;2023-07-24T08:29:32;9.07;;;6.40;;
59530;SDS011;45349;48.692;8.186;2023-07-24T08:32:01;9.87;;;6.37;;
59530;SDS011;45349;48.692;8.186;2023-07-24T08:34:27;9.13;;;5.90;;
59530;SDS011;45349;48.692;8.186;2023-07-24T08:36:54;9.63;;;5.63;;
59530;SDS011;45349;48.692;8.186;2023-07-24T08:39:21;8.83;;;6.03;;
59530;SDS011;45349;48.692;8.186;2023-07-24T08:41:53;8.53;;;5.93;;
59530;SDS011;45349;48.692;8.186;2023-07-24T08:44:21;7.63;;;5.03;;
59530;SDS011;45349;48.692;8.186;2023-07-24T08:46:53;11.07;;;6.27;;
59530;SDS011;45349;48.692;8.186;2023-07-24T08:49:19;8.30;;;5.87;;
59530;SDS011;45349;48.692;8.186;2023-07-24T08:52:11;8.77;;;6.20;;
59530;SDS011;45349;48.692;8.186;2023-07-24T08:54:38;8.73;;;5.83;;
59530;SDS011;45349;48.692;8.186;2023-07-24T08:57:05;8.63;;;6.20;;
59530;SDS011;45349;48.692;8.186;2023-07-24T08:59:34;8.70;;;6.23;;
59530;SDS011;45349;48.692;8.186;2023-07-24T09:02:01;9.07;;;5.90;;
59530;SDS011;45349;48.692;8.186;2023-07-24T09:04:28;9.00;;;5.27;;
59530;SDS011;45349;48.692;8.186;2023-07-24T09:06:58;8.23;;;5.63;;
59530;SDS011;45349;48.692;8.186;2023-07-24T09:09:28;11.07;;;6.20;;
59530;SDS011;45349;48.692;8.186;2023-07-24T09:11:56;7.83;;;5.80;;
59530;SDS011;45349;48.692;8.186;2023-07-24T09:14:23;9.90;;;5.60;;
59530;SDS011;45349;48.692;8.186;2023-07-24T09:17:06;12.27;;;6.00;;
59530;SDS011;45349;48.692;8.186;2023-07-24T09:19:34;6.73;;;4.93;;
59530;SDS011;45349;48.692;8.186;2023-07-24T09:22:08;9.53;;;5.70;;
59530;SDS011;45349;48.692;8.186;2023-07-24T09:24:36;8.50;;;5.70;;
59530;SDS011;45349;48.692;8.186;2023-07-24T09:27:04;8.80;;;5.87;;
59530;SDS011;45349;48.692;8.186;2023-07-24T09:29:32;9.53;;;5.87;;
59530;SDS011;45349;48.692;8.186;2023-07-24T09:31:59;10.00;;;5.93;;
59530;SDS011;45349;48.692;8.186;2023-07-24T09:34:27;10.93;;;5.90;;
59530;SDS011;45349;48.692;8.186;2023-07-24T09:36:54;11.50;;;6.00;;
59530;SDS011;45349;48.692;8.186;2023-07-24T09:39:23;10.93;;;6.73;;
59530;SDS011;45349;48.692;8.186;2023-07-24T09:41:53;9.30;;;6.30;;
59530;SDS011;45349;48.692;8.186;2023-07-24T09:44:20;9.47;;;6.30;;
59530;SDS011;45349;48.692;8.186;2023-07-24T09:47:11;8.03;;;5.70;;
59530;SDS011;45349;48.692;8.186;2023-07-24T09:49:39;9.97;;;6.23;;
59530;SDS011;45349;48.692;8.186;2023-07-24T09:52:06;9.07;;;6.37;;
59530;SDS011;45349;48.692;8.186;2023-07-24T09:54:37;10.33;;;6.23;;
59530;SDS011;45349;48.692;8.186;2023-07-24T09:57:11;10.30;;;6.80;;
59530;SDS011;45349;48.692;8.186;2023-07-24T09:59:39;9.07;;;5.70;;
59530;SDS011;45349;48.692;8.186;2023-07-24T10:02:07;7.53;;;5.23;;
59530;SDS011;45349;48.692;8.186;2023-07-24T10:04:37;10.63;;;6.67;;
59530;SDS011;45349;48.692;8.186;2023-07-24T10:07:07;11.23;;;6.00;;
59530;SDS011;45349;48.692;8.186;2023-07-24T10:09:35;9.77;;;6.77;;
59530;SDS011;45349;48.692;8.186;2023-07-24T10:12:03;15.27;;;7.07;;
59530;SDS011;45349;48.692;8.186;2023-07-24T10:14:30;10.87;;;6.33;;
59530;SDS011;45349;48.692;8.186;2023-07-24T10:16:57;11.87;;;6.50;;
59530;SDS011;45349;48.692;8.186;2023-07-24T10:19:23;7.80;;;5.87;;
59530;SDS011;45349;48.692;8.186;2023-07-24T10:21:53;10.73;;;6.33;;
59530;SDS011;45349;48.692;8.186;2023-07-24T10:24:20;11.13;;;6.53;;
59530;SDS011;45349;48.692;8.186;2023-07-24T10:26:55;8.53;;;6.10;;
59530;SDS011;45349;48.692;8.186;2023-07-24T10:29:23;9.40;;;6.20;;
59530;SDS011;45349;48.692;8.186;2023-07-24T10:31:53;12.37;;;7.03;;
59530;SDS011;45349;48.692;8.186;2023-07-24T10:34:20;12.20;;;7.10;;
59530;SDS011;45349;48.692;8.186;2023-07-24T10:37:01;10.97;;;6.67;;
59530;SDS011;45349;48.692;8.186;2023-07-24T10:39:36;8.87;;;6.57;;
59530;SDS011;45349;48.692;8.186;2023-07-24T10:42:04;12.27;;;6.97;;
59530;SDS011;45349;48.692;8.186;2023-07-24T10:44:32;10.90;;;6.83;;
59530;SDS011;45349;48.692;8.186;2023-07-24T10:46:58;10.77;;;6.77;;
59530;SDS011;45349;48.692;8.186;2023-07-24T10:49:25;17.63;;;7.70;;
59530;SDS011;45349;48.692;8.186;2023-07-24T10:51:54;10.83;;;6.87;;
59530;SDS011;45349;48.692;8.186;2023-07-24T10:54:21;12.63;;;7.50;;
59530;SDS011;45349;48.692;8.186;2023-07-24T10:57:03;12.57;;;7.30;;
59530;SDS011;45349;48.692;8.186;2023-07-24T10:59:36;11.73;;;7.20;;
59530;SDS011;45349;48.692;8.186;2023-07-24T11:02:03;11.90;;;7.30;;
59530;SDS011;45349;48.692;8.186;2023-07-24T11:04:30;11.67;;;7.43;;
59530;SDS011;45349;48.692;8.186;2023-07-24T11:06:58;12.00;;;6.83;;
59530;SDS011;45349;48.692;8.186;2023-07-24T11:09:33;11.87;;;7.07;;
59530;SDS011;45349;48.692;8.186;2023-07-24T11:12:10;11.97;;;6.17;;
59530;SDS011;45349;48.692;8.186;2023-07-24T11:14:45;9.50;;;5.87;;
59530;SDS011;45349;48.692;8.186;2023-07-24T11:17:13;11.67;;;6.00;;
59530;SDS011;45349;48.692;8.186;2023-07-24T11:19:39;8.83;;;6.13;;
59530;SDS011;45349;48.692;8.186;2023-07-24T11:22:06;8.00;;;5.93;;
59530;SDS011;45349;48.692;8.186;2023-07-24T11:24:34;7.67;;;5.10;;
59530;SDS011;45349;48.692;8.186;2023-07-24T11:27:10;10.90;;;6.23;;
59530;SDS011;45349;48.692;8.186;2023-07-24T11:29:39;8.90;;;6.10;;
59530;SDS011;45349;48.692;8.186;2023-07-24T11:32:05;8.90;;;5.60;;
59530;SDS011;45349;48.692;8.186;2023-07-24T11:34:32;7.60;;;5.83;;
59530;SDS011;45349;48.692;8.186;2023-07-24T11:37:00;6.97;;;5.30;;
59530;SDS011;45349;48.692;8.186;2023-07-24T11:39:27;8.67;;;6.07;;
59530;SDS011;45349;48.692;8.186;2023-07-24T11:41:53;12.37;;;6.00;;
59530;SDS011;45349;48.692;8.186;2023-07-24T11:44:25;7.77;;;5.60;;
59530;SDS011;45349;48.692;8.186;2023-07-24T11:46:59;9.10;;;5.73;;
59530;SDS011;45349;48.692;8.186;2023-07-24T11:49:27;8.93;;;5.13;;
59530;SDS011;45349;48.692;8.186;2023-07-24T11:51:59;9.37;;;5.13;;
59530;SDS011;45349;48.692;8.186;2023-07-24T11:54:26;8.20;;;5.00;;
59530;SDS011;45349;48.692;8.186;2023-07-24T11:56:53;9.57;;;5.80;;
59530;SDS011;45349;48.692;8.186;2023-07-24T11:59:19;8.43;;;5.10;;
59530;SDS011;45349;48.692;8.186;2023-07-24T12:01:54;11.27;;;5.73;;
59530;SDS011;45349;48.692;8.186;2023-07-24T12:04:25;6.83;;;4.90;;
59530;SDS011;45349;48.692;8.186;2023-07-24T12:06:53;8.80;;;5.77;;
59530;SDS011;45349;48.692;8.186;2023-07-24T12:09:19;11.40;;;5.77;;
59530;SDS011;45349;48.692;8.186;2023-07-24T12:11:50;7.73;;;5.20;;
59530;SDS011;45349;48.692;8.186;2023-07-24T12:14:16;9.87;;;5.50;;
59530;SDS011;45349;48.692;8.186;2023-07-24T12:16:43;10.20;;;5.93;;
59530;SDS011;45349;48.692;8.186;2023-07-24T12:19:11;10.30;;;5.23;;
59530;SDS011;45349;48.692;8.186;2023-07-24T12:21:37;7.67;;;5.30;;
59530;SDS011;45349;48.692;8.186;2023-07-24T12:24:04;11.63;;;5.40;;
59530;SDS011;45349;48.692;8.186;2023-07-24T12:26:31;9.27;;;5.70;;
59530;SDS011;45349;48.692;8.186;2023-07-24T12:28:57;8.20;;;5.33;;
59530;SDS011;45349;48.692;8.186;2023-07-24T12:31:25;13.00;;;5.80;;
59530;SDS011;45349;48.692;8.186;2023-07-24T12:33:52;8.13;;;4.77;;
59530;SDS011;45349;48.692;8.186;2023-07-24T12:36:20;9.40;;;4.90;;
59530;SDS011;45349;48.692;8.186;2023-07-24T12:38:46;10.80;;;5.60;;
59530;SDS011;45349;48.692;8.186;2023-07-24T12:41:13;7.77;;;5.47;;
59530;SDS011;45349;48.692;8.186;2023-07-24T12:43:40;7.20;;;5.00;;
59530;SDS011;45349;48.692;8.186;2023-07-24T12:46:06;11.00;;;5.23;;
59530;SDS011;45349;48.692;8.186;2023-07-24T12:48:33;7.37;;;4.97;;
59530;SDS011;45349;48.692;8.186;2023-07-24T12:51:01;12.00;;;6.10;;
59530;SDS011;45349;48.692;8.186;2023-07-24T12:53:29;8.60;;;5.63;;
59530;SDS011;45349;48.692;8.186;2023-07-24T12:55:55;10.67;;;5.17;;
59530;SDS011;45349;48.692;8.186;2023-07-24T12:58:22;10.70;;;5.37;;
59530;SDS011;45349;48.692;8.186;2023-07-24T13:00:48;8.77;;;5.47;;
59530;SDS011;45349;48.692;8.186;2023-07-24T13:03:15;7.67;;;5.40;;
59530;SDS011;45349;48.692;8.186;2023-07-24T13:05:42;6.97;;;4.70;;
59530;SDS011;45349;48.692;8.186;2023-07-24T13:08:08;8.90;;;5.20;;
59530;SDS011;45349;48.692;8.186;2023-07-24T13:10:36;11.87;;;5.50;;
59530;SDS011;45349;48.692;8.186;2023-07-24T13:13:03;7.30;;;5.60;;
59530;SDS011;45349;48.692;8.186;2023-07-24T13:15:29;9.60;;;6.17;;
59530;SDS011;45349;48.692;8.186;2023-07-24T13:17:57;8.57;;;5.57;;
59530;SDS011;45349;48.692;8.186;2023-07-24T13:20:24;10.67;;;6.50;;
59530;SDS011;45349;48.692;8.186;2023-07-24T13:22:50;8.20;;;6.00;;
59530;SDS011;45349;48.692;8.186;2023-07-24T13:25:17;7.63;;;5.50;;
59530;SDS011;45349;48.692;8.186;2023-07-24T13:27:45;8.57;;;5.93;;
59530;SDS011;45349;48.692;8.186;2023-07-24T13:30:12;7.27;;;5.33;;
59530;SDS011;45349;48.692;8.186;2023-07-24T13:32:38;9.20;;;5.40;;
59530;SDS011;45349;48.692;8.186;2023-07-24T13:35:05;8.30;;;5.57;;
59530;SDS011;45349;48.692;8.186;2023-07-24T13:37:32;9.17;;;5.40;;
59530;SDS011;45349;48.692;8.186;2023-07-24T13:39:59;9.43;;;5.93;;
59530;SDS011;45349;48.692;8.186;2023-07-24T13:42:26;7.70;;;5.57;;
59530;SDS011;45349;48.692;8.186;2023-07-24T13:44:53;8.47;;;5.20;;
59530;SDS011;45349;48.692;8.186;2023-07-24T13:47:20;8.17;;;5.63;;
59530;SDS011;45349;48.692;8.186;2023-07-24T13:49:47;8.23;;;4.83;;
59530;SDS011;45349;48.692;8.186;2023-07-24T13:52:13;6.67;;;5.07;;
59530;SDS011;45349;48.692;8.186;2023-07-24T13:54:40;9.17;;;4.90;;
59530;SDS011;45349;48.692;8.186;2023-07-24T13:57:06;6.23;;;4.60;;
59530;SDS011;45349;48.692;8.186;2023-07-24T13:59:33;6.80;;;4.93;;
59530;SDS011;45349;48.692;8.186;2023-07-24T14:02:01;6.87;;;4.63;;
59530;SDS011;45349;48.692;8.186;2023-07-24T14:04:28;7.47;;;4.77;;
59530;SDS011;45349;48.692;8.186;2023-07-24T14:06:54;7.03;;;5.10;;
59530;SDS011;45349;48.692;8.186;2023-07-24T14:09:21;8.77;;;5.30;;
59530;SDS011;45349;48.692;8.186;2023-07-24T14:11:53;7.37;;;5.03;;
59530;SDS011;45349;48.692;8.186;2023-07-24T14:14:19;7.00;;;4.47;;
59530;SDS011;45349;48.692;8.186;2023-07-24T14:16:53;8.83;;;5.37;;
59530;SDS011;45349;48.692;8.186;2023-07-24T14:19:20;8.37;;;5.50;;
59530;SDS011;45349;48.692;8.186;2023-07-24T14:21:53;6.27;;;4.73;;
59530;SDS011;45349;48.692;8.186;2023-07-24T14:24:19;7.67;;;4.90;;
59530;SDS011;45349;48.692;8.186;2023-07-24T14:27:10;6.80;;;4.47;;
59530;SDS011;45349;48.692;8.186;2023-07-24T14:29:37;11.40;;;5.03;;
59530;SDS011;45349;48.692;8.186;2023-07-24T14:32:05;5.87;;;4.23;;
59530;SDS011;45349;48.692;8.186;2023-07-24T14:34:33;7.37;;;4.37;;
59530;SDS011;45349;48.692;8.186;2023-07-24T14:37:00;7.30;;;4.87;;
59530;SDS011;45349;48.692;8.186;2023-07-24T14:39:26;7.17;;;4.17;;
59530;SDS011;45349;48.692;8.186;2023-07-24T14:41:53;6.50;;;4.40;;
59530;SDS011;45349;48.692;8.186;2023-07-24T14:44:19;4.67;;;3.93;;
59530;SDS011;45349;48.692;8.186;2023-07-24T14:47:11;7.50;;;4.33;;